createdAt,value
2023-12-10T00:00:06.788Z,43.90
2023-12-10T00:02:33.715Z,34.28
2023-12-10T00:05:00.338Z,47.25
2023-12-10T00:07:26.767Z,37.70
2023-12-10T00:09:53.350Z,20.58
2023-12-10T00:12:21.884Z,34.35
2023-12-10T00:14:53.555Z,37.00
2023-12-10T00:17:20.091Z,36.20
2023-12-10T00:19:47.065Z,35.35
2023-12-10T00:22:13.675Z,28.27
2023-12-10T00:24:40.396Z,22.98
2023-12-10T00:27:06.812Z,29.55
2023-12-10T00:29:33.423Z,33.78
2023-12-10T00:32:00.117Z,32.70
2023-12-10T00:34:26.631Z,36.58
2023-12-10T00:36:53.288Z,43.70
2023-12-10T00:39:19.774Z,21.05
2023-12-10T00:41:48.548Z,26.15
2023-12-10T00:44:15.712Z,33.22
2023-12-10T00:46:42.259Z,36.55
2023-12-10T00:49:09.928Z,34.03
2023-12-10T00:51:36.671Z,27.38
2023-12-10T00:54:05.120Z,29.65
2023-12-10T00:56:33.022Z,36.53
2023-12-10T00:59:00.633Z,24.80
2023-12-10T01:01:27.239Z,33.30
2023-12-10T01:03:53.806Z,22.77
2023-12-10T01:06:20.880Z,37.00
2023-12-10T01:08:47.460Z,30.65
2023-12-10T01:11:13.903Z,39.13
2023-12-10T01:13:40.625Z,34.78
2023-12-10T01:16:07.290Z,30.05
2023-12-10T01:18:38.966Z,39.40
2023-12-10T01:21:06.180Z,30.85
2023-12-10T01:23:32.685Z,31.77
2023-12-10T01:25:59.470Z,33.45
2023-12-10T01:28:26.276Z,25.38
2023-12-10T01:30:52.843Z,36.25
2023-12-10T01:33:19.882Z,32.00
2023-12-10T01:35:46.631Z,34.28
2023-12-10T01:38:13.398Z,25.95
2023-12-10T01:40:39.860Z,29.70
2023-12-10T01:43:07.188Z,29.88
2023-12-10T01:45:34.356Z,29.80
2023-12-10T01:48:02.279Z,34.08
2023-12-10T01:50:28.784Z,33.58
2023-12-10T01:52:55.372Z,27.90
2023-12-10T01:55:23.197Z,24.00
2023-12-10T01:57:49.652Z,26.80
2023-12-10T02:00:16.485Z,21.15
2023-12-10T02:02:43.517Z,28.23
2023-12-10T02:05:10.613Z,35.33
2023-12-10T02:07:37.741Z,32.38
2023-12-10T02:10:07.932Z,30.58
2023-12-10T02:12:35.792Z,28.77
2023-12-10T02:15:14.823Z,26.95
2023-12-10T02:17:42.184Z,20.63
2023-12-10T02:20:11.343Z,23.15
2023-12-10T02:22:38.984Z,28.05
2023-12-10T02:25:08.809Z,33.03
2023-12-10T02:27:35.422Z,30.02
2023-12-10T02:30:01.830Z,28.83
2023-12-10T02:32:28.507Z,35.47
2023-12-10T02:34:55.539Z,30.60
2023-12-10T02:37:23.141Z,28.45
2023-12-10T02:39:49.763Z,29.95
2023-12-10T02:42:17.264Z,24.13
2023-12-10T02:44:44.235Z,24.40
2023-12-10T02:47:10.695Z,25.55
2023-12-10T02:49:37.320Z,25.85
2023-12-10T02:52:03.924Z,29.90
2023-12-10T02:54:30.381Z,31.92
2023-12-10T02:56:56.870Z,27.45
2023-12-10T02:59:23.459Z,23.48
2023-12-10T03:01:50.302Z,32.75
2023-12-10T03:04:17.121Z,28.83
2023-12-10T03:06:43.737Z,26.88
2023-12-10T03:09:10.271Z,24.67
2023-12-10T03:11:36.796Z,33.15
2023-12-10T03:14:05.597Z,34.67
2023-12-10T03:16:32.237Z,28.20
2023-12-10T03:18:59.849Z,24.40
2023-12-10T03:21:26.543Z,28.80
2023-12-10T03:23:53.374Z,19.65
2023-12-10T03:26:19.870Z,26.17
2023-12-10T03:28:46.397Z,27.83
2023-12-10T03:31:13.313Z,23.05
2023-12-10T03:33:39.908Z,47.53
2023-12-10T03:36:06.493Z,23.75
2023-12-10T03:38:33.124Z,32.72
2023-12-10T03:40:59.677Z,27.80
2023-12-10T03:43:26.238Z,26.90
2023-12-10T03:45:54.339Z,22.75
2023-12-10T03:48:21.149Z,23.65
2023-12-10T03:50:47.977Z,37.33
2023-12-10T03:53:14.503Z,33.90
2023-12-10T03:55:40.943Z,31.05
2023-12-10T03:58:07.385Z,38.15
2023-12-10T04:00:34.141Z,28.65
2023-12-10T04:03:00.743Z,37.30
2023-12-10T04:05:27.360Z,27.07
2023-12-10T04:07:54.633Z,23.00
2023-12-10T04:10:21.055Z,34.13
2023-12-10T04:12:47.998Z,39.60
2023-12-10T04:15:14.549Z,31.40
2023-12-10T04:17:41.177Z,31.43
2023-12-10T04:20:08.262Z,25.55
2023-12-10T04:22:34.785Z,35.13
2023-12-10T04:25:01.312Z,24.88
2023-12-10T04:27:27.986Z,35.55
2023-12-10T04:29:54.610Z,30.88
2023-12-10T04:32:21.280Z,26.08
2023-12-10T04:34:47.803Z,22.92
2023-12-10T04:37:14.309Z,41.05
2023-12-10T04:39:41.085Z,28.70
2023-12-10T04:42:07.543Z,31.73
2023-12-10T04:44:34.051Z,25.63
2023-12-10T04:47:01.061Z,22.25
2023-12-10T04:49:27.667Z,35.67
2023-12-10T04:51:54.288Z,38.42
2023-12-10T04:54:20.801Z,33.50
2023-12-10T04:56:47.443Z,35.80
2023-12-10T04:59:14.285Z,29.83
2023-12-10T05:01:40.848Z,22.20
2023-12-10T05:04:07.432Z,25.20
2023-12-10T05:06:34.299Z,34.93
2023-12-10T05:09:02.647Z,31.35
2023-12-10T05:11:29.326Z,20.52
2023-12-10T05:13:55.801Z,28.75
2023-12-10T05:16:22.516Z,36.80
2023-12-10T05:18:49.514Z,22.63
2023-12-10T05:21:16.177Z,40.50
2023-12-10T05:23:42.722Z,33.85
2023-12-10T05:26:09.164Z,32.97
2023-12-10T05:28:35.671Z,28.77
2023-12-10T05:31:02.162Z,24.43
2023-12-10T05:33:28.883Z,34.38
2023-12-10T05:35:55.720Z,30.67
2023-12-10T05:38:24.617Z,29.20
2023-12-10T05:40:51.475Z,38.65
2023-12-10T05:43:18.095Z,30.42
2023-12-10T05:45:44.606Z,28.45
2023-12-10T05:48:11.194Z,31.48
2023-12-10T05:50:38.029Z,28.02
2023-12-10T05:53:05.182Z,24.92
2023-12-10T05:55:31.905Z,25.03
2023-12-10T05:57:58.405Z,27.98
2023-12-10T06:00:26.437Z,26.33
2023-12-10T06:02:54.202Z,38.15
2023-12-10T06:05:20.831Z,30.38
2023-12-10T06:07:47.360Z,27.33
2023-12-10T06:10:13.930Z,28.60
2023-12-10T06:12:40.931Z,31.10
2023-12-10T06:15:07.609Z,20.85
2023-12-10T06:17:34.266Z,39.58
2023-12-10T06:20:00.657Z,26.45
2023-12-10T06:22:27.545Z,31.40
2023-12-10T06:24:54.712Z,28.25
2023-12-10T06:27:21.593Z,35.97
2023-12-10T06:29:48.116Z,26.58
2023-12-10T06:32:14.589Z,23.67
2023-12-10T06:34:41.146Z,25.27
2023-12-10T06:37:07.713Z,25.02
2023-12-10T06:39:34.748Z,25.52
2023-12-10T06:42:01.481Z,25.48
2023-12-10T06:44:28.531Z,27.57
2023-12-10T06:46:54.980Z,34.38
2023-12-10T06:49:24.735Z,25.20
2023-12-10T06:51:51.327Z,34.03
2023-12-10T06:54:17.845Z,32.80
2023-12-10T06:56:45.211Z,22.13
2023-12-10T06:59:11.774Z,25.02
2023-12-10T07:01:39.198Z,36.20
2023-12-10T07:04:06.256Z,18.23
2023-12-10T07:06:32.826Z,21.20
2023-12-10T07:08:59.289Z,30.48
2023-12-10T07:11:26.009Z,28.42
2023-12-10T07:13:55.212Z,28.48
2023-12-10T07:16:21.986Z,27.15
2023-12-10T07:18:49.039Z,32.35
2023-12-10T07:21:15.725Z,29.10
2023-12-10T07:23:42.670Z,23.70
2023-12-10T07:26:09.077Z,23.40
2023-12-10T07:28:35.632Z,26.70
2023-12-10T07:31:02.370Z,28.85
2023-12-10T07:33:29.243Z,27.57
2023-12-10T07:35:58.269Z,34.28
2023-12-10T07:38:25.633Z,36.65
2023-12-10T07:40:52.210Z,32.20
2023-12-10T07:43:18.765Z,31.42
2023-12-10T07:45:45.356Z,29.17
2023-12-10T07:48:12.098Z,24.45
2023-12-10T07:50:39.707Z,25.08
2023-12-10T07:53:06.492Z,29.23
2023-12-10T07:55:33.077Z,29.13
2023-12-10T07:58:00.043Z,29.15
2023-12-10T08:00:26.801Z,31.80
2023-12-10T08:02:53.877Z,29.20
2023-12-10T08:05:20.647Z,28.48
2023-12-10T08:07:47.281Z,27.63
2023-12-10T08:10:13.981Z,28.30
2023-12-10T08:12:42.063Z,30.50
2023-12-10T08:15:08.858Z,22.52
2023-12-10T08:17:35.577Z,30.67
2023-12-10T08:20:02.210Z,28.85
2023-12-10T08:22:29.549Z,22.67
2023-12-10T08:24:56.169Z,27.55
2023-12-10T08:27:23.021Z,33.42
2023-12-10T08:29:49.657Z,29.77
2023-12-10T08:32:16.147Z,25.63
2023-12-10T08:34:42.997Z,35.53
2023-12-10T08:37:09.618Z,28.48
2023-12-10T08:39:36.114Z,34.78
2023-12-10T08:42:02.744Z,30.38
2023-12-10T08:44:29.418Z,38.28
2023-12-10T08:46:55.998Z,27.77
2023-12-10T08:49:22.746Z,28.25
2023-12-10T08:51:49.548Z,26.25
2023-12-10T08:54:16.075Z,30.55
2023-12-10T08:56:42.613Z,42.85
2023-12-10T08:59:09.112Z,38.90
2023-12-10T09:01:36.667Z,40.10
2023-12-10T09:04:04.807Z,37.03
2023-12-10T09:06:31.362Z,36.13
2023-12-10T09:08:57.864Z,33.63
2023-12-10T09:11:24.830Z,36.20
2023-12-10T09:13:51.458Z,30.23
2023-12-10T09:16:19.238Z,32.78
2023-12-10T09:18:45.954Z,34.65
2023-12-10T09:21:12.448Z,32.05
2023-12-10T09:23:39.421Z,24.42
2023-12-10T09:26:05.991Z,19.38
2023-12-10T09:28:32.519Z,37.10
2023-12-10T09:30:59.120Z,39.42
2023-12-10T09:33:26.012Z,30.80
2023-12-10T09:35:53.225Z,36.58
2023-12-10T09:38:19.989Z,25.15
2023-12-10T09:40:46.465Z,31.35
2023-12-10T09:43:13.113Z,24.00
2023-12-10T09:45:39.635Z,32.40
2023-12-10T09:48:06.818Z,25.27
2023-12-10T09:50:39.980Z,36.67
2023-12-10T09:53:07.103Z,25.55
2023-12-10T09:55:33.564Z,32.67
2023-12-10T09:58:00.191Z,35.50
2023-12-10T10:00:26.852Z,26.33
2023-12-10T10:03:00.212Z,26.95
2023-12-10T10:05:27.506Z,37.70
2023-12-10T10:07:55.469Z,34.17
2023-12-10T10:10:24.765Z,28.10
2023-12-10T10:12:51.609Z,24.83
2023-12-10T10:15:26.393Z,22.05
2023-12-10T10:17:54.410Z,30.25
2023-12-10T10:20:25.436Z,24.17
2023-12-10T10:22:52.800Z,23.30
2023-12-10T10:25:19.945Z,30.47
2023-12-10T10:27:46.506Z,29.88
2023-12-10T10:30:13.423Z,38.08
2023-12-10T10:32:41.008Z,29.35
2023-12-10T10:35:09.242Z,38.88
2023-12-10T10:37:36.237Z,28.37
2023-12-10T10:40:03.468Z,32.30
2023-12-10T10:42:29.989Z,35.13
2023-12-10T10:45:00.476Z,40.67
2023-12-10T10:47:29.102Z,34.35
2023-12-10T10:50:20.063Z,37.23
2023-12-10T10:52:45.292Z,30.38
2023-12-10T10:55:12.379Z,35.85
2023-12-10T10:57:40.655Z,37.45
2023-12-10T11:00:19.989Z,42.90
2023-12-10T11:02:47.283Z,30.57
2023-12-10T11:05:14.114Z,32.63
2023-12-10T11:07:43.577Z,34.92
2023-12-10T11:10:10.107Z,33.05
2023-12-10T11:12:50.386Z,30.83
2023-12-10T11:15:17.743Z,38.27
2023-12-10T11:17:58.634Z,33.35
2023-12-10T11:20:35.414Z,34.92
2023-12-10T11:23:03.225Z,33.28
2023-12-10T11:25:30.038Z,37.33
2023-12-10T11:27:58.336Z,34.03
2023-12-10T11:30:25.898Z,37.13
2023-12-10T11:32:52.961Z,42.65
2023-12-10T11:35:19.878Z,31.63
2023-12-10T11:37:47.085Z,38.95
2023-12-10T11:40:14.748Z,35.27
2023-12-10T11:42:41.381Z,36.80
2023-12-10T11:45:08.694Z,47.05
2023-12-10T11:47:35.749Z,38.13
2023-12-10T11:50:03.918Z,40.85
2023-12-10T11:52:31.864Z,44.70
2023-12-10T11:54:58.335Z,38.35
2023-12-10T11:57:24.964Z,36.38
2023-12-10T11:59:51.817Z,34.53
2023-12-10T12:02:18.378Z,43.75
2023-12-10T12:04:44.990Z,48.33
2023-12-10T12:07:23.291Z,40.45
2023-12-10T12:09:49.848Z,47.60
2023-12-10T12:12:16.419Z,40.45
2023-12-10T12:14:43.852Z,42.33
2023-12-10T12:17:14.729Z,49.53
2023-12-10T12:19:42.153Z,47.15
2023-12-10T12:22:09.688Z,37.05
2023-12-10T12:24:36.371Z,44.35
2023-12-10T12:27:03.066Z,53.05
2023-12-10T12:29:29.444Z,50.77
2023-12-10T12:32:12.548Z,46.15
2023-12-10T12:34:43.159Z,33.63
2023-12-10T12:37:09.710Z,47.30
2023-12-10T12:39:36.269Z,47.58
2023-12-10T12:42:02.808Z,43.27
2023-12-10T12:44:29.242Z,48.47
2023-12-10T12:46:55.998Z,45.60
2023-12-10T12:49:23.408Z,39.65
2023-12-10T12:51:50.042Z,56.13
2023-12-10T12:54:16.524Z,30.57
2023-12-10T12:56:45.769Z,55.15
2023-12-10T12:59:14.453Z,46.45
2023-12-10T13:01:41.401Z,52.72
2023-12-10T13:04:07.962Z,41.35
2023-12-10T13:06:34.668Z,57.20
2023-12-10T13:09:01.339Z,53.03
2023-12-10T13:11:27.728Z,48.53
2023-12-10T13:13:54.905Z,53.22
2023-12-10T13:16:21.743Z,55.33
2023-12-10T13:18:48.327Z,55.27
2023-12-10T13:21:14.881Z,53.80
2023-12-10T13:23:41.359Z,52.92
2023-12-10T13:26:07.849Z,53.15
2023-12-10T13:28:34.312Z,51.50
2023-12-10T13:31:00.962Z,52.43
2023-12-10T13:33:27.884Z,46.17
2023-12-10T13:35:54.546Z,54.88
2023-12-10T13:38:21.659Z,41.00
2023-12-10T13:40:48.962Z,42.85
2023-12-10T13:43:15.996Z,39.57
2023-12-10T13:45:42.880Z,47.15
2023-12-10T13:48:09.465Z,54.55
2023-12-10T13:50:35.965Z,38.30
2023-12-10T13:53:02.630Z,45.88
2023-12-10T13:55:29.690Z,39.03
2023-12-10T13:57:59.301Z,45.88
2023-12-10T14:00:26.458Z,36.53
2023-12-10T14:02:53.570Z,44.20
2023-12-10T14:05:20.277Z,35.97
2023-12-10T14:07:49.640Z,42.90
2023-12-10T14:10:17.037Z,46.88
2023-12-10T14:12:43.782Z,43.60
2023-12-10T14:15:10.917Z,46.05
2023-12-10T14:20:05.020Z,36.87
2023-12-10T14:22:32.687Z,37.85
2023-12-10T14:25:02.091Z,34.33
2023-12-10T14:27:28.884Z,30.92
2023-12-10T14:29:56.441Z,34.35
2023-12-10T14:32:22.955Z,32.83
2023-12-10T14:34:49.823Z,29.75
2023-12-10T14:37:16.550Z,32.97
2023-12-10T14:39:43.274Z,34.53
2023-12-10T14:42:09.801Z,35.97
2023-12-10T14:44:36.628Z,32.17
2023-12-10T14:47:03.113Z,29.92
2023-12-10T14:49:30.657Z,30.08
2023-12-10T14:52:00.224Z,34.78
2023-12-10T14:54:27.373Z,33.85
2023-12-10T14:56:53.876Z,29.43
2023-12-10T14:59:20.359Z,27.95
2023-12-10T15:01:58.749Z,23.25
2023-12-10T15:04:32.777Z,24.27
2023-12-10T15:06:59.428Z,30.20
2023-12-10T15:09:26.660Z,22.50
2023-12-10T15:11:53.156Z,26.58
2023-12-10T15:14:19.735Z,21.35
2023-12-10T15:16:46.154Z,29.17
2023-12-10T15:19:13.088Z,31.95
2023-12-10T15:21:40.055Z,35.17
2023-12-10T15:24:06.609Z,34.92
2023-12-10T15:26:33.244Z,35.13
2023-12-10T15:28:59.744Z,32.53
2023-12-10T15:31:27.229Z,28.05
2023-12-10T15:33:53.775Z,27.92
2023-12-10T15:36:23.157Z,31.60
2023-12-10T15:38:49.851Z,26.83
2023-12-10T15:41:16.301Z,34.58
2023-12-10T15:43:42.820Z,30.70
2023-12-10T15:46:09.504Z,34.20
2023-12-10T15:48:36.639Z,36.75
2023-12-10T15:51:03.496Z,27.38
2023-12-10T15:53:30.010Z,39.28
2023-12-10T15:55:58.504Z,34.40
2023-12-10T15:58:25.689Z,33.53
2023-12-10T16:00:54.572Z,36.00
2023-12-10T16:03:23.856Z,27.55
2023-12-10T16:05:51.446Z,22.15
2023-12-10T16:08:18.767Z,39.85
2023-12-10T16:10:45.498Z,34.85
2023-12-10T16:13:15.419Z,39.22
2023-12-10T16:15:44.344Z,30.20
2023-12-10T16:18:11.172Z,35.53
2023-12-10T16:20:38.987Z,32.78
2023-12-10T16:23:05.988Z,39.72
2023-12-10T16:25:32.780Z,41.58
2023-12-10T16:27:59.437Z,30.65
2023-12-10T16:30:26.686Z,31.42
2023-12-10T16:32:53.256Z,37.22
2023-12-10T16:35:19.760Z,39.50
2023-12-10T16:37:46.257Z,33.00
2023-12-10T16:40:15.074Z,36.58
2023-12-10T16:42:41.948Z,36.50
2023-12-10T16:45:10.699Z,35.70
2023-12-10T16:47:37.423Z,33.90
2023-12-10T16:50:06.417Z,42.55
2023-12-10T16:52:33.202Z,36.20
2023-12-10T16:55:00.334Z,42.10
2023-12-10T16:57:28.279Z,37.90
2023-12-10T16:59:56.019Z,36.30
2023-12-10T17:02:23.537Z,36.03
2023-12-10T17:04:50.342Z,34.65
2023-12-10T17:07:17.041Z,35.72
2023-12-10T17:09:43.608Z,31.20
2023-12-10T17:12:10.500Z,38.15
2023-12-10T17:14:37.378Z,35.60
2023-12-10T17:17:04.000Z,23.98
2023-12-10T17:19:30.658Z,32.88
2023-12-10T17:21:59.392Z,27.17
2023-12-10T17:24:26.304Z,23.05
2023-12-10T17:26:52.828Z,19.90
2023-12-10T17:29:19.297Z,14.40
2023-12-10T17:31:45.921Z,21.13
2023-12-10T17:34:13.562Z,23.27
2023-12-10T17:36:40.216Z,17.35
2023-12-10T17:39:08.120Z,16.10
2023-12-10T17:41:35.162Z,15.95
2023-12-10T17:44:01.802Z,16.73
2023-12-10T17:46:28.664Z,20.92
2023-12-10T17:48:55.222Z,12.88
2023-12-10T17:51:22.145Z,13.63
2023-12-10T17:53:48.732Z,17.58
2023-12-10T17:56:16.375Z,15.25
2023-12-10T17:58:43.039Z,15.93
2023-12-10T18:01:09.774Z,14.53
2023-12-10T18:03:36.330Z,13.45
2023-12-10T18:06:03.000Z,11.88
2023-12-10T18:08:29.434Z,14.85
2023-12-10T18:10:57.068Z,14.30
2023-12-10T18:13:23.529Z,12.10
2023-12-10T18:15:50.139Z,12.18
2023-12-10T18:18:16.948Z,14.18
2023-12-10T18:20:43.758Z,18.05
2023-12-10T18:23:10.274Z,16.73
2023-12-10T18:25:37.445Z,13.07
2023-12-10T18:28:04.432Z,12.43
2023-12-10T18:30:32.367Z,14.70
2023-12-10T18:32:59.496Z,17.42
2023-12-10T18:35:26.548Z,14.45
2023-12-10T18:37:53.172Z,13.20
2023-12-10T18:40:20.876Z,14.05
2023-12-10T18:42:47.552Z,19.35
2023-12-10T18:45:14.188Z,13.98
2023-12-10T18:47:40.732Z,13.05
2023-12-10T18:50:09.424Z,10.77
2023-12-10T18:52:36.240Z,17.02
2023-12-10T18:55:02.849Z,15.10
2023-12-10T18:57:30.214Z,19.15
2023-12-10T18:59:57.907Z,18.80
2023-12-10T19:02:24.963Z,21.13
2023-12-10T19:04:51.661Z,17.98
2023-12-10T19:07:18.440Z,18.15
2023-12-10T19:09:47.254Z,23.58
2023-12-10T19:12:15.186Z,17.08
2023-12-10T19:14:44.545Z,25.23
2023-12-10T19:17:11.869Z,17.13
2023-12-10T19:19:42.782Z,30.00
2023-12-10T19:22:09.373Z,23.00
2023-12-10T19:24:36.108Z,25.42
2023-12-10T19:27:02.946Z,21.60
2023-12-10T19:29:30.026Z,22.23
2023-12-10T19:31:57.717Z,18.67
2023-12-10T19:34:24.599Z,17.45
2023-12-10T19:36:51.157Z,23.38
2023-12-10T19:39:21.365Z,24.03
2023-12-10T19:41:47.951Z,19.98
2023-12-10T19:44:14.540Z,26.45
2023-12-10T19:46:41.218Z,22.98
2023-12-10T19:49:08.956Z,27.38
2023-12-10T19:51:35.497Z,26.07
2023-12-10T19:54:02.239Z,40.03
2023-12-10T19:56:29.479Z,36.80
2023-12-10T19:58:56.674Z,24.90
2023-12-10T20:01:23.925Z,32.53
2023-12-10T20:03:50.622Z,28.63
2023-12-10T20:06:17.105Z,30.08
2023-12-10T20:08:43.568Z,27.55
2023-12-10T20:11:10.246Z,32.50
2023-12-10T20:13:37.780Z,30.75
2023-12-10T20:16:05.201Z,32.40
2023-12-10T20:18:32.290Z,35.78
2023-12-10T20:20:59.893Z,37.30
2023-12-10T20:23:27.168Z,31.17
2023-12-10T20:25:55.662Z,33.88
2023-12-10T20:28:23.619Z,37.93
2023-12-10T20:30:51.051Z,37.83
2023-12-10T20:33:18.219Z,35.92
2023-12-10T20:35:44.713Z,33.42
2023-12-10T20:38:11.278Z,27.00
2023-12-10T20:40:37.647Z,32.30
2023-12-10T20:43:04.919Z,44.40
2023-12-10T20:45:31.848Z,37.10
2023-12-10T20:47:59.596Z,34.45
2023-12-10T20:50:26.366Z,28.02
2023-12-10T20:52:53.496Z,44.20
2023-12-10T20:55:20.123Z,37.70
2023-12-10T20:57:46.696Z,41.70
2023-12-10T21:00:15.711Z,42.35
2023-12-10T21:02:42.844Z,42.97
2023-12-10T21:05:09.771Z,34.77
2023-12-10T21:07:36.362Z,48.05
2023-12-10T21:10:03.448Z,49.75
2023-12-10T21:12:30.116Z,36.40
2023-12-10T21:14:56.805Z,39.22
2023-12-10T21:17:23.387Z,44.53
2023-12-10T21:19:49.967Z,44.08
2023-12-10T21:22:16.769Z,40.80
2023-12-10T21:24:43.563Z,46.95
2023-12-10T21:27:10.199Z,46.00
2023-12-10T21:29:36.829Z,42.23
2023-12-10T21:32:03.479Z,42.00
2023-12-10T21:34:30.260Z,44.72
2023-12-10T21:36:57.700Z,42.05
2023-12-10T21:39:24.691Z,45.20
2023-12-10T21:41:51.316Z,52.17
2023-12-10T21:44:17.796Z,52.72
2023-12-10T21:46:44.257Z,49.95
2023-12-10T21:49:10.954Z,48.90
2023-12-10T21:51:38.014Z,55.15
2023-12-10T21:54:07.038Z,46.47
2023-12-10T21:56:34.404Z,39.13
2023-12-10T21:59:00.973Z,49.65
2023-12-10T22:01:27.723Z,44.58
2023-12-10T22:03:54.542Z,53.60
2023-12-10T22:06:21.122Z,51.33
2023-12-10T22:08:47.634Z,48.70
2023-12-10T22:11:14.959Z,49.33
2023-12-10T22:13:42.030Z,52.70
2023-12-10T22:16:08.822Z,47.72
2023-12-10T22:18:35.598Z,41.90
2023-12-10T22:21:02.160Z,42.28
2023-12-10T22:23:29.287Z,52.30
2023-12-10T22:25:55.746Z,54.45
2023-12-10T22:28:23.298Z,68.95
2023-12-10T22:30:49.959Z,37.95
2023-12-10T22:33:16.663Z,53.72
2023-12-10T22:35:43.357Z,45.67
2023-12-10T22:38:09.866Z,52.72
2023-12-10T22:40:36.510Z,52.15
2023-12-10T22:43:03.152Z,52.50
2023-12-10T22:45:29.976Z,55.97
2023-12-10T22:47:56.562Z,57.75
2023-12-10T22:50:24.526Z,50.95
2023-12-10T22:52:51.783Z,55.15
2023-12-10T22:55:18.413Z,59.17
2023-12-10T22:57:48.205Z,59.28
2023-12-10T23:00:19.810Z,57.88
2023-12-10T23:02:46.384Z,54.78
2023-12-10T23:05:13.022Z,54.63
2023-12-10T23:07:39.664Z,54.73
2023-12-10T23:10:06.483Z,56.88
2023-12-10T23:12:33.325Z,59.75
2023-12-10T23:14:59.780Z,62.05
2023-12-10T23:17:26.238Z,49.17
2023-12-10T23:19:53.006Z,55.13
2023-12-10T23:22:19.452Z,54.03
2023-12-10T23:24:48.240Z,49.55
2023-12-10T23:27:14.686Z,54.05
2023-12-10T23:29:41.401Z,60.60
2023-12-10T23:32:08.089Z,50.97
2023-12-10T23:34:34.646Z,61.25
2023-12-10T23:37:01.245Z,61.38
2023-12-10T23:39:27.933Z,61.92
2023-12-10T23:41:54.447Z,62.92
2023-12-10T23:44:20.920Z,60.20
2023-12-10T23:46:47.421Z,68.03
2023-12-10T23:49:14.020Z,56.92
2023-12-10T23:51:41.091Z,53.78
2023-12-10T23:54:07.646Z,54.95
2023-12-10T23:56:34.161Z,58.55
2023-12-10T23:59:01.020Z,57.33
